Terminal Aerodrome Forecast
Issued by NWS Duluth, MN

Home | Current Version | Previous Version | Text Only | Print | Product List | Glossary On
Versions: 1 2 3 4 5 6 7 8 9 10 11 12 13 14 15 16 17
000
FTUS43 KDLH 150920 AAA
TAFDLH
TAF AMD
KDLH 150920Z 1509/1606 35010KT P6SM -RA SCT010 OVC030
     FM151200 33007KT P6SM SCT010 SCT030
     FM151500 31009KT P6SM FEW250
     FM160000 27004KT P6SM VCSH SCT035 BKN100
     FM160300 25005KT P6SM BKN100=

USA.gov is the U.S. government's official web portal to all federal, state and local government web resources and services.